createdAt,value
2022-12-19T02:34:55.896Z,-2.20
2022-12-19T02:37:25.715Z,-2.20
2022-12-19T02:40:02.534Z,-2.20
2022-12-19T02:42:33.428Z,-2.10
2022-12-19T02:45:02.775Z,-2.20
2022-12-19T02:47:32.852Z,-2.20
2022-12-19T02:49:59.920Z,-2.20
2022-12-19T02:52:27.127Z,-2.20
2022-12-19T02:54:58.252Z,-2.10
2022-12-19T02:57:43.728Z,-2.10
2022-12-19T03:00:47.369Z,-2.10
2022-12-19T03:06:54.017Z,-2.20
2022-12-19T03:09:32.307Z,-2.20
2022-12-19T03:12:17.318Z,-2.20
2022-12-19T03:14:46.273Z,-2.20
2022-12-19T03:17:13.215Z,-2.20
2022-12-19T03:19:41.178Z,-2.20
2022-12-19T03:22:08.378Z,-2.30
2022-12-19T03:24:35.775Z,-2.20
2022-12-19T03:27:30.378Z,-2.20
2022-12-19T03:30:12.622Z,-2.20
2022-12-19T03:32:43.790Z,-2.20
2022-12-19T03:35:19.062Z,-2.20
2022-12-19T03:37:47.956Z,-2.20
2022-12-19T03:40:18.272Z,-2.10
2022-12-19T03:43:06.880Z,-2.10
2022-12-19T03:46:01.325Z,-2.10
2022-12-19T03:48:35.966Z,-2.20
2022-12-19T03:51:10.180Z,-2.20
2022-12-19T03:53:46.561Z,-2.10
2022-12-19T03:56:26.665Z,-2.20
2022-12-19T03:59:05.620Z,-2.20
2022-12-19T04:01:35.730Z,-2.10
2022-12-19T04:04:07.598Z,-2.00
2022-12-19T04:06:40.512Z,-2.00
2022-12-19T04:09:11.676Z,-1.80
2022-12-19T04:11:49.244Z,-2.00
2022-12-19T04:14:32.812Z,-2.00
2022-12-19T04:17:24.895Z,-2.10
2022-12-19T04:20:04.899Z,-1.80
2022-12-19T04:22:57.106Z,-2.10
2022-12-19T04:25:42.244Z,-2.00
2022-12-19T04:28:35.347Z,-2.00
2022-12-19T04:31:04.682Z,-2.20
2022-12-19T04:33:33.478Z,-1.60
2022-12-19T04:36:01.373Z,-2.00
2022-12-19T04:38:32.538Z,-2.00
2022-12-19T04:41:00.699Z,-1.90
2022-12-19T04:46:24.171Z,-1.20
2022-12-19T04:48:54.380Z,-1.90
2022-12-19T04:51:31.423Z,-1.90
2022-12-19T04:53:59.253Z,-1.90
2022-12-19T04:56:28.758Z,-1.50
2022-12-19T04:59:01.001Z,-1.90
2022-12-19T05:01:29.053Z,-1.80
2022-12-19T05:04:18.018Z,-1.90
2022-12-19T05:06:45.580Z,-1.80
2022-12-19T05:09:13.080Z,-1.50
2022-12-19T05:11:40.219Z,-1.30
2022-12-19T05:14:10.197Z,-1.20
2022-12-19T05:16:37.986Z,-1.70
2022-12-19T05:19:05.667Z,-2.00
2022-12-19T05:21:32.916Z,-1.90
2022-12-19T05:24:00.959Z,-1.80
2022-12-19T05:26:37.045Z,-1.70
2022-12-19T05:29:07.131Z,-1.70
2022-12-19T05:31:36.252Z,-1.00
2022-12-19T05:34:07.391Z,-1.70
2022-12-19T05:36:35.155Z,-1.60
2022-12-19T05:39:09.597Z,-1.20
2022-12-19T05:41:38.791Z,-2.00
2022-12-19T05:44:10.257Z,-1.60
2022-12-19T05:46:37.829Z,-1.60
2022-12-19T05:49:16.625Z,-2.10
2022-12-19T05:51:50.708Z,-1.60
2022-12-19T05:54:19.069Z,-1.70
2022-12-19T05:56:57.333Z,-1.70
2022-12-19T05:59:24.861Z,-1.70
2022-12-19T06:01:53.701Z,-1.60
2022-12-19T06:04:20.908Z,-1.60
2022-12-19T06:06:49.810Z,-1.50
2022-12-19T06:09:17.168Z,-1.50
2022-12-19T06:11:44.052Z,-1.50
2022-12-19T06:14:11.188Z,-1.50
2022-12-19T06:16:39.134Z,-1.50
2022-12-19T06:19:06.674Z,-1.40
2022-12-19T06:21:34.292Z,-1.20
2022-12-19T06:24:01.673Z,-1.40
2022-12-19T06:26:29.702Z,-1.40
2022-12-19T06:28:56.760Z,-1.50
2022-12-19T06:31:30.108Z,-1.50
2022-12-19T06:34:06.365Z,-1.40
2022-12-19T06:36:35.187Z,-1.40
2022-12-19T06:39:15.538Z,-1.40
2022-12-19T06:42:02.690Z,-1.30
2022-12-19T06:44:33.526Z,-1.30
2022-12-19T06:47:01.087Z,-1.30
2022-12-19T06:49:29.878Z,-1.30
2022-12-19T06:51:58.089Z,-1.40
2022-12-19T06:54:26.438Z,-1.50
2022-12-19T06:57:17.168Z,-1.30
2022-12-19T06:59:47.821Z,-1.30
2022-12-19T07:02:28.311Z,-1.10
2022-12-19T07:05:07.441Z,-1.20
2022-12-19T07:07:34.997Z,-1.10
2022-12-19T07:10:02.879Z,-1.10
2022-12-19T07:12:36.716Z,-1.10
2022-12-19T07:15:04.565Z,-1.20
2022-12-19T07:17:31.999Z,-1.10
2022-12-19T07:20:02.603Z,-1.10
2022-12-19T07:22:33.991Z,-1.10
2022-12-19T07:25:07.413Z,-1.00
2022-12-19T07:27:36.253Z,-1.00
2022-12-19T07:30:16.255Z,-0.80
2022-12-19T07:32:43.194Z,-1.30
2022-12-19T07:35:10.419Z,-1.00
2022-12-19T07:37:38.722Z,-0.70
2022-12-19T07:40:11.017Z,-1.00
2022-12-19T07:42:38.951Z,-1.00
2022-12-19T07:45:07.685Z,-0.30
2022-12-19T07:47:34.882Z,-1.00
2022-12-19T07:50:02.051Z,-0.90
2022-12-19T07:52:28.985Z,-0.90
2022-12-19T07:54:56.275Z,-0.90
2022-12-19T07:57:23.639Z,-0.10
2022-12-19T08:08:02.564Z,-0.80
2022-12-19T08:10:31.602Z,-0.80
2022-12-19T08:12:58.369Z,-0.20
2022-12-19T08:19:04.180Z,-0.70
2022-12-19T08:21:31.016Z,-0.70
2022-12-19T08:23:58.525Z,-0.70
2022-12-19T08:26:26.683Z,-0.40
2022-12-19T08:29:14.758Z,0.00
2022-12-19T08:32:26.797Z,-0.70
2022-12-19T08:42:32.901Z,-0.50
2022-12-19T08:45:01.755Z,-0.50
2022-12-19T08:47:30.843Z,-0.50
2022-12-19T08:49:58.222Z,-0.10
2022-12-19T08:52:52.954Z,-0.40
2022-12-19T08:55:32.483Z,-0.30
2022-12-19T08:58:19.528Z,-0.20
2022-12-19T09:01:19.679Z,-0.10
2022-12-19T09:04:03.912Z,-0.70
2022-12-19T09:06:43.560Z,-0.10
2022-12-19T09:09:12.734Z,0.00
2022-12-19T09:11:48.221Z,0.00
2022-12-19T09:14:20.972Z,0.00
2022-12-19T09:16:53.136Z,0.60
2022-12-19T09:19:22.028Z,0.30
2022-12-19T09:21:55.862Z,0.00
2022-12-19T09:24:30.324Z,0.10
2022-12-19T09:27:01.501Z,0.20
2022-12-19T09:29:35.483Z,0.30
2022-12-19T09:32:06.238Z,0.30
2022-12-19T09:34:39.537Z,0.30
2022-12-19T09:37:17.094Z,0.30
2022-12-19T09:39:48.195Z,0.40
2022-12-19T09:42:40.524Z,0.50
2022-12-19T09:45:41.844Z,0.60
2022-12-19T09:48:24.592Z,0.70
2022-12-19T09:51:26.670Z,0.60
2022-12-19T09:54:26.846Z,0.60
2022-12-19T09:57:06.363Z,0.60
2022-12-19T09:59:49.640Z,0.70
2022-12-19T10:03:01.364Z,0.50
2022-12-19T10:07:09.304Z,0.70
2022-12-19T10:08:50.371Z,0.60
2022-12-19T10:12:42.259Z,0.60
2022-12-19T10:14:57.129Z,0.50
2022-12-19T10:17:37.199Z,0.50
2022-12-19T10:20:29.117Z,0.50
2022-12-19T10:23:37.801Z,0.50
2022-12-19T10:26:15.230Z,0.50
2022-12-19T10:29:05.628Z,0.50
2022-12-19T18:56:20.895Z,-0.60
2022-12-19T20:22:42.899Z,-0.50
2022-12-19T20:25:09.958Z,-0.40
2022-12-19T20:27:37.064Z,-0.30
2022-12-19T20:30:04.793Z,-0.50
2022-12-19T20:32:31.658Z,-0.40
2022-12-19T20:34:58.766Z,0.10
2022-12-19T20:37:25.545Z,-0.30
2022-12-19T20:39:52.965Z,0.40
2022-12-19T20:42:19.756Z,-0.30
2022-12-19T20:44:48.528Z,0.20
2022-12-19T20:47:15.349Z,0.30
2022-12-19T20:49:42.149Z,0.30
2022-12-19T20:52:09.027Z,0.20
2022-12-19T20:54:35.820Z,0.10
2022-12-19T20:57:02.664Z,-0.10
2022-12-19T20:59:29.482Z,0.00
2022-12-19T21:01:57.112Z,0.30
2022-12-19T21:04:24.143Z,0.00
2022-12-19T21:06:51.082Z,0.10
2022-12-19T21:09:17.779Z,0.10
2022-12-19T21:11:44.639Z,0.20
2022-12-19T21:14:11.969Z,0.20
2022-12-19T21:16:38.913Z,0.20
2022-12-19T21:19:06.138Z,0.20
2022-12-19T21:21:32.958Z,0.30
2022-12-19T21:24:01.300Z,0.30
2022-12-19T21:26:28.309Z,0.30
2022-12-19T21:28:57.930Z,0.40
2022-12-19T21:31:28.063Z,0.80
2022-12-19T21:34:00.332Z,0.50
2022-12-19T21:36:30.057Z,0.50
2022-12-19T21:38:58.361Z,0.60
2022-12-19T21:41:25.628Z,0.60
2022-12-19T21:43:54.351Z,0.70
2022-12-19T21:46:26.363Z,0.70
2022-12-19T21:48:55.336Z,0.70
2022-12-19T21:51:25.238Z,0.90
2022-12-19T21:53:58.235Z,0.90
2022-12-19T21:56:37.067Z,1.30
2022-12-19T21:59:06.857Z,1.10
2022-12-19T22:01:34.125Z,1.20
2022-12-19T22:04:03.049Z,1.30
2022-12-19T22:06:31.865Z,1.50
2022-12-19T22:09:00.356Z,1.50
2022-12-19T22:11:28.731Z,1.70
2022-12-19T22:13:56.451Z,1.90
2022-12-19T22:16:23.287Z,1.90
2022-12-19T22:18:52.711Z,2.10
2022-12-19T22:21:20.519Z,2.20
2022-12-19T22:23:47.392Z,2.60
2022-12-19T22:26:17.478Z,2.70
2022-12-19T22:28:46.797Z,3.10
2022-12-19T22:31:34.708Z,3.20
2022-12-19T22:34:04.413Z,4.20
2022-12-19T22:36:33.449Z,4.10
2022-12-19T22:39:02.641Z,4.20
2022-12-19T22:41:30.011Z,4.70
2022-12-19T22:43:56.906Z,4.90
2022-12-19T22:46:26.508Z,5.50
2022-12-19T22:48:55.617Z,6.30
2022-12-19T22:51:22.620Z,5.80
2022-12-19T22:53:49.459Z,6.30
2022-12-19T22:56:18.901Z,5.90
2022-12-19T22:58:47.889Z,6.00
2022-12-19T23:01:26.569Z,5.90
2022-12-19T23:03:55.740Z,6.20
2022-12-19T23:06:24.122Z,7.70
2022-12-19T23:08:51.331Z,6.90
2022-12-19T23:11:22.253Z,8.80
2022-12-19T23:13:49.825Z,8.20
2022-12-19T23:16:16.951Z,7.70
2022-12-19T23:18:44.170Z,7.40
2022-12-19T23:21:17.476Z,7.10
2022-12-19T23:23:45.841Z,7.00
2022-12-19T23:26:24.624Z,6.70
2022-12-19T23:29:03.460Z,6.60
2022-12-19T23:31:31.042Z,6.40
2022-12-19T23:33:58.347Z,6.20
2022-12-19T23:37:08.458Z,6.10
2022-12-19T23:39:13.261Z,6.10
2022-12-19T23:41:40.406Z,6.00
2022-12-19T23:44:08.581Z,5.90
2022-12-19T23:46:35.753Z,5.90
2022-12-19T23:49:02.563Z,5.80
2022-12-19T23:51:30.240Z,5.70
2022-12-19T23:53:57.580Z,5.70
2022-12-19T23:56:27.401Z,5.50
2022-12-19T23:58:54.758Z,5.90
